Daihatsumaru — JD2764 — position and weather

sailwx.info

Track history (hours):
 
Tides and Currents Weather Stations Pressure Air Temp Water Temp Dewpoint Dewpoint Depression Visibility Wind Speed Wind Dir Waves Ship Positions

Daihatsumaru

Last reported at 2016-Sep-28 03:29 UTC. Time now 2016-Sep-28 15:28 UTC.
Position N 34°41' E 135°23'.

Length 106 m; draft 4.5 m.

Type: Cargo ship. MMSI: 431000701.

Date/timePositionNaut miles runAvg speedWind from/ knotsBaromVisibWave heightAir tempDewpointWater temp
2016-Sep-28 03:29N 34°41' E 135°23'0 0.0
2016-Sep-28 02:26N 34°41' E 135°23'0 0.1
2016-Sep-28 01:32N 34°41' E 135°23'0 0.0
2016-Sep-27 23:20N 34°41' E 135°23'2 0.6
2016-Sep-27 19:28N 34°40' E 135°21'  
2016-Sep-24 03:33N 34°36' E 135°14'9 9.3
2016-Sep-24 02:32N 34°41' E 135°23'0 0.0
2016-Sep-24 01:26N 34°41' E 135°23'0 0.0
2016-Sep-24 00:26N 34°41' E 135°23'19 3.9
2016-Sep-23 19:33N 34°37' E 135°01'4 0.1
2016-Sep-22 04:33N 34°36' E 135°06'1514.9
2016-Sep-22 03:32N 34°41' E 135°23'0 0.0
2016-Sep-22 00:29N 34°41' E 135°23'0 0.0
2016-Sep-21 23:12N 34°41' E 135°23'2 3.7
2016-Sep-21 22:33N 34°40' E 135°21'1 0.5
2016-Sep-21 19:33N 34°39' E 135°20'  
Track history (hours):
 
Tides and Currents Weather Stations Pressure Air Temp Water Temp Dewpoint Dewpoint Depression Visibility Wind Speed Wind Dir Waves Ship Positions

Daihatsumaru

Last reported at 2016-Sep-28 03:29 UTC. Time now 2016-Sep-28 15:28 UTC.
Position N 34°41' E 135°23'.

Length 106 m; draft 4.5 m.

Type: Cargo ship. MMSI: 431000701.

Date/timePositionNaut miles runAvg speedWind from/ knotsBaromVisibWave heightAir tempDewpointWater temp
2016-Sep-28 03:29N 34°41' E 135°23'0 0.0
2016-Sep-28 02:26N 34°41' E 135°23'0 0.1
2016-Sep-28 01:32N 34°41' E 135°23'0 0.0
2016-Sep-27 23:20N 34°41' E 135°23'2 0.6
2016-Sep-27 19:28N 34°40' E 135°21'  
2016-Sep-24 03:33N 34°36' E 135°14'9 9.3
2016-Sep-24 02:32N 34°41' E 135°23'0 0.0
2016-Sep-24 01:26N 34°41' E 135°23'0 0.0
2016-Sep-24 00:26N 34°41' E 135°23'19 3.9
2016-Sep-23 19:33N 34°37' E 135°01'4 0.1
2016-Sep-22 04:33N 34°36' E 135°06'1514.9
2016-Sep-22 03:32N 34°41' E 135°23'0 0.0
2016-Sep-22 00:29N 34°41' E 135°23'0 0.0
2016-Sep-21 23:12N 34°41' E 135°23'2 3.7
2016-Sep-21 22:33N 34°40' E 135°21'1 0.5
2016-Sep-21 19:33N 34°39' E 135°20'  

Dump ship's entire track history